createdAt,value
2019-03-13T00:01:40.082Z,77.30
2019-03-13T00:04:10.801Z,77.52
2019-03-13T00:06:41.496Z,77.81
2019-03-13T00:09:13.257Z,79.73
2019-03-13T00:11:43.844Z,83.27
2019-03-13T00:14:14.836Z,86.95
2019-03-13T00:16:45.515Z,89.11
2019-03-13T00:19:16.150Z,90.46
2019-03-13T00:21:46.735Z,91.36
2019-03-13T00:24:17.425Z,92.05
2019-03-13T00:26:48.026Z,92.61
2019-03-13T00:29:18.672Z,93.26
2019-03-13T00:31:49.314Z,93.88
2019-03-13T00:34:19.914Z,94.31
2019-03-13T00:36:50.523Z,94.53
2019-03-13T00:39:21.122Z,94.82
2019-03-13T00:41:51.749Z,94.92
2019-03-13T00:44:22.380Z,95.08
2019-03-13T00:46:53.063Z,95.20
2019-03-13T00:49:23.733Z,95.24
2019-03-13T00:51:54.338Z,95.09
2019-03-13T00:54:25.017Z,95.01
2019-03-13T00:56:55.594Z,95.13
2019-03-13T00:59:26.226Z,95.09
2019-03-13T01:02:24.683Z,94.91
2019-03-13T01:05:01.420Z,95.01
2019-03-13T01:07:32.017Z,95.00
2019-03-13T01:10:02.638Z,94.91
2019-03-13T01:12:33.249Z,94.81
2019-03-13T01:15:04.088Z,94.90
2019-03-13T01:17:34.731Z,95.01
2019-03-13T01:20:05.813Z,95.06
2019-03-13T01:22:36.452Z,94.95
2019-03-13T01:25:07.708Z,94.95
2019-03-13T01:27:38.415Z,94.59
2019-03-13T01:30:10.254Z,94.56
2019-03-13T01:32:52.324Z,94.39
2019-03-13T01:35:42.113Z,94.32
2019-03-13T01:38:12.824Z,93.92
2019-03-13T01:40:43.425Z,93.51
2019-03-13T01:43:14.107Z,93.94
2019-03-13T01:45:44.706Z,93.20
2019-03-13T01:48:15.331Z,92.98
2019-03-13T01:50:46.079Z,93.41
2019-03-13T01:53:16.764Z,92.95
2019-03-13T01:55:47.429Z,92.49
2019-03-13T01:58:18.099Z,91.82
2019-03-13T02:00:48.723Z,91.14
2019-03-13T02:03:19.379Z,91.86
2019-03-13T02:05:50.040Z,91.34
2019-03-13T02:08:20.717Z,91.16
2019-03-13T02:10:51.390Z,90.64
2019-03-13T02:13:22.103Z,91.04
2019-03-13T02:15:53.136Z,91.69
2019-03-13T02:18:23.883Z,91.37
2019-03-13T02:20:54.576Z,90.55
2019-03-13T02:23:25.238Z,91.06
2019-03-13T02:25:56.067Z,91.37
2019-03-13T02:28:26.783Z,90.33
2019-03-13T02:30:57.442Z,90.34
2019-03-13T02:33:28.135Z,90.25
2019-03-13T02:35:58.855Z,89.90
2019-03-13T02:38:29.471Z,90.37
2019-03-13T02:41:00.126Z,90.00
2019-03-13T02:43:30.810Z,90.28
2019-03-13T02:46:01.481Z,90.16
2019-03-13T02:48:32.214Z,90.66
2019-03-13T02:51:02.877Z,90.34
2019-03-13T02:53:33.528Z,90.19
2019-03-13T02:56:04.195Z,90.48
2019-03-13T02:58:34.917Z,90.86
2019-03-13T03:01:22.161Z,89.62
2019-03-13T03:03:54.654Z,90.51
2019-03-13T03:06:25.432Z,89.83
2019-03-13T03:08:56.145Z,88.83
2019-03-13T03:11:26.855Z,88.82
2019-03-13T03:13:57.637Z,88.95
2019-03-13T03:16:28.388Z,89.19
2019-03-13T03:18:59.177Z,88.80
2019-03-13T03:21:29.936Z,89.24
2019-03-13T03:24:00.626Z,88.67
2019-03-13T03:26:31.338Z,88.55
2019-03-13T03:29:02.127Z,87.69
2019-03-13T03:31:32.898Z,87.69
2019-03-13T03:34:04.971Z,87.93
2019-03-13T03:36:35.779Z,86.26
2019-03-13T03:39:25.731Z,86.07
2019-03-13T03:41:56.488Z,85.49
2019-03-13T03:44:27.202Z,84.61
2019-03-13T03:46:57.893Z,84.95
2019-03-13T03:49:28.626Z,84.36
2019-03-13T03:51:59.388Z,84.25
2019-03-13T03:54:30.405Z,83.74
2019-03-13T03:57:01.197Z,83.65
2019-03-13T03:59:31.930Z,83.39
2019-03-13T04:02:02.837Z,83.53
2019-03-13T04:04:33.617Z,82.40
2019-03-13T04:07:04.345Z,82.99
2019-03-13T04:09:35.464Z,82.51
2019-03-13T04:12:06.191Z,82.63
2019-03-13T04:14:36.938Z,82.71
2019-03-13T04:17:07.699Z,82.33
2019-03-13T04:19:38.474Z,81.94
2019-03-13T04:22:09.211Z,82.33
2019-03-13T04:24:39.864Z,82.05
2019-03-13T04:27:10.553Z,82.17
2019-03-13T04:29:41.256Z,82.26
2019-03-13T04:32:12.079Z,81.74
2019-03-13T04:34:42.728Z,81.85
2019-03-13T04:37:13.519Z,81.82
2019-03-13T04:39:44.234Z,82.22
2019-03-13T04:42:14.967Z,81.79
2019-03-13T04:44:45.688Z,81.62
2019-03-13T04:47:16.543Z,82.10
2019-03-13T04:49:47.275Z,81.38
2019-03-13T04:52:17.981Z,81.35
2019-03-13T04:54:48.700Z,81.62
2019-03-13T04:57:19.472Z,81.68
2019-03-13T04:59:50.287Z,81.39
2019-03-13T05:02:20.827Z,81.39
2019-03-13T05:04:51.405Z,81.48
2019-03-13T05:07:21.936Z,81.26
2019-03-13T05:09:52.517Z,81.59
2019-03-13T05:12:23.004Z,81.15
2019-03-13T05:14:53.575Z,81.71
2019-03-13T05:17:24.100Z,81.19
2019-03-13T05:19:54.660Z,81.35
2019-03-13T05:22:27.898Z,81.53
2019-03-13T05:24:58.473Z,82.34
2019-03-13T05:27:29.048Z,82.24
2019-03-13T05:29:59.620Z,81.87
2019-03-13T05:32:30.223Z,81.92
2019-03-13T05:35:00.773Z,82.20
2019-03-13T05:37:31.252Z,81.95
2019-03-13T05:40:01.845Z,82.35
2019-03-13T05:42:32.356Z,82.37
2019-03-13T05:45:02.955Z,82.78
2019-03-13T05:47:33.518Z,83.01
2019-03-13T05:50:04.117Z,82.30
2019-03-13T05:52:34.737Z,81.62
2019-03-13T05:55:05.322Z,81.25
2019-03-13T05:57:35.897Z,81.53
2019-03-13T06:00:06.702Z,81.14
2019-03-13T06:02:37.199Z,81.11
2019-03-13T06:05:07.713Z,80.91
2019-03-13T06:07:38.175Z,82.19
2019-03-13T06:10:08.668Z,80.79
2019-03-13T06:12:39.138Z,81.35
2019-03-13T06:15:09.931Z,81.51
2019-03-13T06:17:40.411Z,79.69
2019-03-13T06:20:11.363Z,81.01
2019-03-13T06:22:41.889Z,81.23
2019-03-13T06:25:12.501Z,80.36
2019-03-13T06:27:46.070Z,80.09
2019-03-13T06:30:15.424Z,80.02
2019-03-13T06:32:45.894Z,79.21
2019-03-13T06:35:16.463Z,79.27
2019-03-13T06:37:46.986Z,78.79
2019-03-13T06:40:17.524Z,79.22
2019-03-13T06:42:48.033Z,78.91
2019-03-13T06:45:18.709Z,78.94
2019-03-13T06:47:49.227Z,78.63
2019-03-13T06:50:20.156Z,79.34
2019-03-13T06:52:50.629Z,79.26
2019-03-13T06:55:21.088Z,79.27
2019-03-13T06:57:51.602Z,79.58
2019-03-13T07:00:50.690Z,79.24
2019-03-13T07:03:42.912Z,79.33
2019-03-13T07:06:31.359Z,79.69
2019-03-13T07:09:26.950Z,78.79
2019-03-13T07:12:16.028Z,78.62
2019-03-13T07:15:08.477Z,78.94
2019-03-13T07:17:57.943Z,79.20
2019-03-13T07:20:45.801Z,79.15
2019-03-13T07:23:35.735Z,78.79
2019-03-13T07:26:14.600Z,78.70
2019-03-13T07:29:12.016Z,79.19
2019-03-13T07:31:54.673Z,78.39
2019-03-13T07:34:44.156Z,78.05
2019-03-13T07:37:36.560Z,77.74
2019-03-13T07:40:15.484Z,78.03
2019-03-13T07:43:01.960Z,77.92
2019-03-13T07:45:50.075Z,77.97
2019-03-13T07:48:27.736Z,77.89
2019-03-13T07:51:23.515Z,77.53
2019-03-13T07:54:01.528Z,76.65
2019-03-13T07:56:50.786Z,76.33
2019-03-13T07:59:55.657Z,76.52
2019-03-13T08:02:43.976Z,76.79
2019-03-13T08:05:19.000Z,76.74
2019-03-13T08:07:58.430Z,76.60
2019-03-13T08:10:53.645Z,76.52
2019-03-13T08:13:38.105Z,76.42
2019-03-13T08:16:33.856Z,76.46
2019-03-13T08:19:29.488Z,75.80
2019-03-13T08:22:17.872Z,76.43
2019-03-13T08:25:01.374Z,75.87
2019-03-13T08:27:43.520Z,76.21
2019-03-13T08:30:37.884Z,75.13
2019-03-13T08:33:36.491Z,76.10
2019-03-13T08:36:19.916Z,76.09
2019-03-13T08:39:08.352Z,75.63
2019-03-13T08:42:09.945Z,76.00
2019-03-13T08:44:46.872Z,75.83
2019-03-13T08:47:54.635Z,75.29
2019-03-13T08:50:46.198Z,75.17
2019-03-13T08:53:21.874Z,75.56
2019-03-13T08:56:17.404Z,75.44
2019-03-13T08:59:05.428Z,75.07
2019-03-13T09:01:53.835Z,75.42
2019-03-13T09:04:52.429Z,74.80
2019-03-13T09:07:40.466Z,74.89
2019-03-13T09:10:30.587Z,74.57
2019-03-13T09:13:12.679Z,74.49
2019-03-13T09:15:49.498Z,74.47
2019-03-13T09:18:38.857Z,74.05
2019-03-13T09:21:20.756Z,73.92
2019-03-13T09:24:02.514Z,73.54
2019-03-13T09:27:10.408Z,73.93
2019-03-13T09:30:02.630Z,74.34
2019-03-13T09:32:50.964Z,73.92
2019-03-13T09:35:43.203Z,73.92
2019-03-13T09:38:31.653Z,74.16
2019-03-13T09:41:21.050Z,74.76
2019-03-13T09:44:09.449Z,74.70
2019-03-13T09:46:58.861Z,74.62
2019-03-13T09:49:51.718Z,74.18
2019-03-13T09:52:33.917Z,73.91
2019-03-13T09:55:26.499Z,73.67
2019-03-13T09:58:15.095Z,73.15
2019-03-13T10:01:10.710Z,73.70
2019-03-13T10:04:09.389Z,75.12
2019-03-13T10:07:17.015Z,75.52
2019-03-13T10:09:58.919Z,76.39
2019-03-13T10:12:57.203Z,75.95
2019-03-13T10:15:43.290Z,75.84
2019-03-13T10:18:31.436Z,75.54
2019-03-13T10:21:22.839Z,75.68
2019-03-13T10:23:59.656Z,75.22
2019-03-13T10:26:52.871Z,75.59
2019-03-13T10:29:28.359Z,75.90
2019-03-13T10:32:16.976Z,75.20
2019-03-13T10:34:53.858Z,75.65
2019-03-13T10:37:46.259Z,75.64
2019-03-13T10:40:41.556Z,75.08
2019-03-13T10:43:46.387Z,76.28
2019-03-13T10:46:47.969Z,76.21
2019-03-13T10:49:40.564Z,77.96
2019-03-13T10:52:16.035Z,79.35
2019-03-13T10:55:00.484Z,79.85
2019-03-13T10:57:49.854Z,80.83
2019-03-13T11:00:42.141Z,81.95
2019-03-13T11:03:27.956Z,82.41
2019-03-13T11:06:16.106Z,82.19
2019-03-13T11:09:11.575Z,82.80
2019-03-13T11:12:00.892Z,83.70
2019-03-13T11:14:51.596Z,84.79
2019-03-13T11:17:40.059Z,85.67
2019-03-13T11:20:24.294Z,86.40
2019-03-13T11:23:05.331Z,87.06
2019-03-13T11:25:51.355Z,86.91
2019-03-13T11:28:56.297Z,87.29
2019-03-13T11:31:44.837Z,87.65
2019-03-13T11:34:26.687Z,88.56
2019-03-13T11:37:19.324Z,87.58
2019-03-13T11:40:07.549Z,87.17
2019-03-13T11:42:53.826Z,87.87
2019-03-13T11:45:32.517Z,87.96
2019-03-13T11:48:20.873Z,88.06
2019-03-13T11:51:05.291Z,87.77
2019-03-13T11:53:58.043Z,87.42
2019-03-13T11:56:47.299Z,88.00
2019-03-13T11:59:45.755Z,88.10
2019-03-13T12:02:37.957Z,88.97
2019-03-13T12:05:19.799Z,88.86
2019-03-13T12:08:15.071Z,89.04
2019-03-13T12:11:01.470Z,89.67
2019-03-13T12:13:45.494Z,89.76
2019-03-13T12:16:29.045Z,89.45
2019-03-13T12:19:12.544Z,89.02
2019-03-13T12:21:52.952Z,88.57
2019-03-13T12:24:51.238Z,88.23
2019-03-13T12:27:36.301Z,88.43
2019-03-13T12:30:33.748Z,87.26
2019-03-13T12:33:21.705Z,86.63
2019-03-13T12:36:11.159Z,85.96
2019-03-13T12:39:06.499Z,86.34
2019-03-13T12:41:49.144Z,86.15
2019-03-13T12:44:37.176Z,85.61
2019-03-13T12:47:21.022Z,84.55
2019-03-13T12:50:07.159Z,84.33
2019-03-13T12:52:56.545Z,83.40
2019-03-13T12:55:54.937Z,82.65
2019-03-13T12:58:43.105Z,81.94
2019-03-13T13:01:35.506Z,82.81
2019-03-13T13:04:13.565Z,81.96
2019-03-13T13:06:51.203Z,81.75
2019-03-13T13:09:50.575Z,81.40
2019-03-13T13:12:42.752Z,81.39
2019-03-13T13:15:50.542Z,81.13
2019-03-13T13:18:34.774Z,78.93
2019-03-13T13:21:05.283Z,78.62
2019-03-13T13:23:35.773Z,79.26
2019-03-13T13:26:06.603Z,79.31
2019-03-13T13:28:37.088Z,79.61
2019-03-13T13:31:07.632Z,79.42
2019-03-13T13:33:38.121Z,80.34
2019-03-13T13:36:09.216Z,80.64
2019-03-13T13:38:39.734Z,80.29
2019-03-13T13:41:10.245Z,80.30
2019-03-13T13:43:40.692Z,80.13
2019-03-13T13:46:32.261Z,79.02
2019-03-13T13:49:02.752Z,79.79
2019-03-13T13:51:33.274Z,79.12
2019-03-13T13:54:03.865Z,79.33
2019-03-13T13:56:34.396Z,79.32
2019-03-13T13:59:04.943Z,79.66
2019-03-13T14:01:35.442Z,79.99
2019-03-13T14:04:05.961Z,80.72
2019-03-13T14:06:36.446Z,80.26
2019-03-13T14:09:07.807Z,81.28
2019-03-13T14:11:38.285Z,81.40
2019-03-13T14:14:08.775Z,81.75
2019-03-13T14:16:39.301Z,82.87
2019-03-13T14:19:09.766Z,83.51
2019-03-13T14:21:40.244Z,84.91
2019-03-13T14:24:10.633Z,85.43
2019-03-13T14:26:41.116Z,84.84
2019-03-13T14:29:11.570Z,85.43
2019-03-13T14:31:42.123Z,86.76
2019-03-13T14:34:12.600Z,86.92
2019-03-13T14:36:43.122Z,87.47
2019-03-13T14:39:13.741Z,88.34
2019-03-13T14:41:44.208Z,89.22
2019-03-13T14:44:14.686Z,89.67
2019-03-13T14:46:45.214Z,90.43
2019-03-13T14:49:15.755Z,90.76
2019-03-13T14:51:46.314Z,90.35
2019-03-13T14:54:16.846Z,90.81
2019-03-13T14:56:47.381Z,91.05
2019-03-13T14:59:17.914Z,91.50
2019-03-13T15:01:48.535Z,92.09
2019-03-13T15:04:19.055Z,92.38
2019-03-13T15:06:49.541Z,92.32
2019-03-13T15:09:20.093Z,92.83
2019-03-13T15:11:50.600Z,93.09
2019-03-13T15:14:21.114Z,93.26
2019-03-13T15:16:53.292Z,93.19
2019-03-13T15:19:23.956Z,93.06
2019-03-13T15:21:54.438Z,93.71
2019-03-13T15:24:24.916Z,93.06
2019-03-13T15:26:55.340Z,93.28
2019-03-13T15:29:25.827Z,94.07
2019-03-13T15:31:56.394Z,94.08
2019-03-13T15:34:26.961Z,93.46
2019-03-13T15:36:57.524Z,93.54
2019-03-13T15:39:28.098Z,93.67
2019-03-13T15:41:58.695Z,93.98
2019-03-13T15:44:29.226Z,94.26
2019-03-13T15:46:59.737Z,94.55
2019-03-13T15:49:30.233Z,94.49
2019-03-13T15:52:00.779Z,94.12
2019-03-13T15:54:31.895Z,93.03
2019-03-13T15:57:02.413Z,93.24
2019-03-13T15:59:32.916Z,93.10
2019-03-13T16:02:03.482Z,93.65
2019-03-13T16:04:33.995Z,94.00
2019-03-13T16:07:04.513Z,94.13
2019-03-13T16:09:35.075Z,94.15
2019-03-13T16:12:05.593Z,94.03
2019-03-13T16:14:36.144Z,94.08
2019-03-13T16:17:06.734Z,93.73
2019-03-13T16:19:37.233Z,94.26
2019-03-13T16:22:08.874Z,94.32
2019-03-13T16:24:39.468Z,94.68
2019-03-13T16:27:10.023Z,94.69
2019-03-13T16:29:40.542Z,94.87
2019-03-13T16:32:12.751Z,95.06
2019-03-13T16:34:43.233Z,95.30
2019-03-13T16:37:13.731Z,95.56
2019-03-13T16:39:44.341Z,95.14
2019-03-13T16:42:14.861Z,95.26
2019-03-13T16:44:45.380Z,94.97
2019-03-13T16:47:15.942Z,95.11
2019-03-13T16:49:46.473Z,95.06
2019-03-13T16:52:16.921Z,94.88
2019-03-13T16:54:47.503Z,95.01
2019-03-13T16:57:18.076Z,94.62
2019-03-13T16:59:59.995Z,95.05
2019-03-13T17:02:21.080Z,94.97
2019-03-13T17:04:51.636Z,94.83
2019-03-13T17:07:22.110Z,94.64
2019-03-13T17:09:52.684Z,94.80
2019-03-13T17:12:23.180Z,94.54
2019-03-13T17:14:53.686Z,94.64
2019-03-13T17:17:24.230Z,94.92
2019-03-13T17:19:54.750Z,94.68
2019-03-13T17:22:25.281Z,95.06
2019-03-13T17:24:55.830Z,95.35
2019-03-13T17:27:26.266Z,95.30
2019-03-13T17:29:56.812Z,95.00
2019-03-13T17:32:27.351Z,94.92
2019-03-13T17:34:57.894Z,95.04
2019-03-13T17:37:28.370Z,95.08
2019-03-13T17:39:58.919Z,95.18
2019-03-13T17:42:29.485Z,95.30
2019-03-13T17:45:00.374Z,95.20
2019-03-13T17:47:31.204Z,95.13
2019-03-13T17:50:01.714Z,95.36
2019-03-13T17:52:32.148Z,95.31
2019-03-13T17:55:02.704Z,95.30
2019-03-13T17:57:34.199Z,95.38
2019-03-13T18:00:05.614Z,95.50
2019-03-13T18:02:36.177Z,95.64
2019-03-13T18:05:07.555Z,95.62
2019-03-13T18:07:38.141Z,95.62
2019-03-13T18:10:11.691Z,95.73
2019-03-13T18:12:42.222Z,95.55
2019-03-13T18:15:12.938Z,95.39
2019-03-13T18:17:43.616Z,95.15
2019-03-13T18:20:16.308Z,95.14
2019-03-13T18:22:46.941Z,95.33
2019-03-13T18:25:18.356Z,95.64
2019-03-13T18:27:49.902Z,95.58
2019-03-13T18:30:22.953Z,95.58
2019-03-13T18:32:53.572Z,95.62
2019-03-13T18:35:24.112Z,95.93
2019-03-13T18:37:54.712Z,95.95
2019-03-13T18:40:25.971Z,95.95
2019-03-13T18:42:56.543Z,95.96
2019-03-13T18:45:27.611Z,96.15
2019-03-13T18:47:58.276Z,96.03
2019-03-13T18:50:35.624Z,95.92
2019-03-13T18:53:07.319Z,96.08
2019-03-13T18:55:38.027Z,96.26
2019-03-13T18:58:08.606Z,96.07
2019-03-13T19:00:39.408Z,96.17
2019-03-13T19:03:10.639Z,96.29
2019-03-13T19:05:41.265Z,96.49
2019-03-13T19:08:11.859Z,96.75
2019-03-13T19:10:42.770Z,96.90
2019-03-13T19:13:13.345Z,97.04
2019-03-13T19:15:43.991Z,97.71
2019-03-13T19:18:14.629Z,97.29
2019-03-13T19:20:45.196Z,97.21
2019-03-13T19:23:16.122Z,97.25
2019-03-13T19:25:46.814Z,97.17
2019-03-13T19:28:17.502Z,97.29
2019-03-13T19:30:48.129Z,97.35
2019-03-13T19:33:20.157Z,97.41
2019-03-13T19:35:52.444Z,97.45
2019-03-13T19:38:25.652Z,97.38
2019-03-13T19:40:58.459Z,97.25
2019-03-13T19:43:29.188Z,97.20
2019-03-13T19:45:59.814Z,97.15
2019-03-13T19:48:30.443Z,97.24
2019-03-13T19:51:01.243Z,97.28
2019-03-13T19:53:33.090Z,97.32
2019-03-13T19:56:03.742Z,97.34
2019-03-13T19:58:34.734Z,97.24
2019-03-13T20:01:06.014Z,97.40
2019-03-13T20:03:36.843Z,97.52
2019-03-13T20:06:12.029Z,97.59
2019-03-13T20:08:44.544Z,97.59
2019-03-13T20:11:15.199Z,97.37
2019-03-13T20:13:45.921Z,97.41
2019-03-13T20:16:16.751Z,97.42
2019-03-13T20:18:49.848Z,97.22
2019-03-13T20:21:20.697Z,97.07
2019-03-13T20:23:51.366Z,97.07
2019-03-13T20:26:22.057Z,96.74
2019-03-13T20:28:52.728Z,96.44
2019-03-13T20:31:23.394Z,96.35
2019-03-13T20:33:54.034Z,96.31
2019-03-13T20:36:24.750Z,96.56
2019-03-13T20:38:55.482Z,96.36
2019-03-13T20:41:26.114Z,96.36
2019-03-13T20:43:56.682Z,96.45
2019-03-13T20:46:27.186Z,96.35
2019-03-13T20:48:57.837Z,96.48
2019-03-13T20:51:28.435Z,96.52
2019-03-13T20:53:58.925Z,96.52
2019-03-13T20:56:29.499Z,96.39
2019-03-13T20:59:00.309Z,96.34
2019-03-13T21:01:30.980Z,96.37
2019-03-13T21:04:01.632Z,96.55
2019-03-13T21:06:32.180Z,96.44
2019-03-13T21:09:02.817Z,96.46
2019-03-13T21:11:33.380Z,96.37
2019-03-13T21:14:03.831Z,96.60
2019-03-13T21:16:34.450Z,96.55
2019-03-13T21:19:05.153Z,96.37
2019-03-13T21:21:35.741Z,96.24
2019-03-13T21:24:06.250Z,96.16
2019-03-13T21:26:36.844Z,96.25
2019-03-13T21:29:07.396Z,96.15
2019-03-13T21:31:38.166Z,95.83
2019-03-13T21:34:09.720Z,96.06
2019-03-13T21:36:40.429Z,96.09
2019-03-13T21:39:12.016Z,95.75
2019-03-13T21:41:42.667Z,95.80
2019-03-13T21:44:13.179Z,95.76
2019-03-13T21:46:43.698Z,95.95
2019-03-13T21:49:14.268Z,95.87
2019-03-13T21:51:44.819Z,96.20
2019-03-13T21:54:15.375Z,95.76
2019-03-13T21:56:45.955Z,95.34
2019-03-13T21:59:16.591Z,95.52
2019-03-13T22:01:47.093Z,95.78
2019-03-13T22:04:24.094Z,95.57
2019-03-13T22:06:49.888Z,95.66
2019-03-13T22:09:20.414Z,95.85
2019-03-13T22:11:51.041Z,95.98
2019-03-13T22:14:21.534Z,95.35
2019-03-13T22:16:52.033Z,95.01
2019-03-13T22:19:22.671Z,94.74
2019-03-13T22:21:53.224Z,95.15
2019-03-13T22:24:23.816Z,95.21
2019-03-13T22:26:54.414Z,94.86
2019-03-13T22:29:25.084Z,95.29
2019-03-13T22:31:55.777Z,95.78
2019-03-13T22:34:26.384Z,95.47
2019-03-13T22:36:56.971Z,95.40
2019-03-13T22:39:27.515Z,95.79
2019-03-13T22:41:58.191Z,95.75
2019-03-13T22:44:28.788Z,95.70
2019-03-13T22:46:59.497Z,95.71
2019-03-13T22:49:30.159Z,95.59
2019-03-13T22:52:01.173Z,95.81
2019-03-13T22:54:32.478Z,95.64
2019-03-13T22:57:03.649Z,95.78
2019-03-13T22:59:35.320Z,95.68
2019-03-13T23:02:09.635Z,95.94
2019-03-13T23:04:40.431Z,96.11
2019-03-13T23:07:11.616Z,96.00
2019-03-13T23:09:42.297Z,95.77
2019-03-13T23:12:13.098Z,96.06
2019-03-13T23:14:43.631Z,95.92
2019-03-13T23:17:14.654Z,95.87
2019-03-13T23:19:45.436Z,95.72
2019-03-13T23:22:15.983Z,95.64
2019-03-13T23:24:46.744Z,94.98
2019-03-13T23:27:17.612Z,94.77
2019-03-13T23:29:48.861Z,94.38
2019-03-13T23:32:19.459Z,93.60
2019-03-13T23:34:50.343Z,93.61
2019-03-13T23:37:21.085Z,93.65
2019-03-13T23:39:52.060Z,92.71
2019-03-13T23:42:22.708Z,92.85
2019-03-13T23:44:54.875Z,93.28
2019-03-13T23:47:25.849Z,91.87
2019-03-13T23:49:56.483Z,92.40
2019-03-13T23:52:27.126Z,92.45
2019-03-13T23:54:58.023Z,92.36
2019-03-13T23:57:28.896Z,93.12
